Time;durP1;ratioP1;P1;durP2;ratioP2;P2;SDS_P1;SDS_P2;PMS_P1;PMS_P2;Temp;Humidity;BMP_temperature;BMP_pressure;BME280_temperature;BME280_humidity;BME280_pressure;Samples;Min_cycle;Max_cycle;Signal;HPM_P1;HPM_P2
2023/04/04 00:01:59;;;;;;;3.53;1.60;;;2.30;99.90;;;;;;5060195;28;20487;-72
2023/04/04 00:04:26;;;;;;;3.13;1.77;;;2.30;99.90;;;;;;5075982;28;20102;-72
2023/04/04 00:06:52;;;;;;;5.90;3.08;;;2.70;99.90;;;;;;5093902;28;20123;-72
2023/04/04 00:09:18;;;;;;;2.97;2.00;;;2.30;99.90;;;;;;5094020;28;20378;-73
2023/04/04 00:11:44;;;;;;;4.80;2.30;;;2.30;99.90;;;;;;5094687;28;20044;-72
2023/04/04 00:14:11;;;;;;;4.18;2.22;;;2.50;99.90;;;;;;5093893;28;20052;-72
2023/04/04 00:16:37;;;;;;;4.22;2.17;;;2.40;99.90;;;;;;5094285;28;20082;-73
2023/04/04 00:19:03;;;;;;;3.42;1.85;;;2.30;99.90;;;;;;5075990;28;20044;-72
2023/04/04 00:21:29;;;;;;;4.28;2.58;;;2.30;99.90;;;;;;5093819;28;20097;-72
2023/04/04 00:23:56;;;;;;;4.15;2.45;;;2.20;99.90;;;;;;5094272;28;20117;-72
2023/04/04 00:26:27;;;;;;;6.05;2.50;;;2.20;99.90;;;;;;5093684;28;20047;-72
2023/04/04 00:28:53;;;;;;;4.10;2.22;;;2.20;99.90;;;;;;5093955;28;20108;-72
2023/04/04 00:31:20;;;;;;;3.78;2.28;;;2.20;99.90;;;;;;5093708;28;20048;-72
2023/04/04 00:33:46;;;;;;;3.30;2.10;;;2.10;99.90;;;;;;5093597;28;20044;-72
2023/04/04 00:36:12;;;;;;;4.50;2.47;;;2.10;99.90;;;;;;5093557;28;20492;-74
2023/04/04 00:38:37;;;;;;;3.63;2.05;;;2.10;99.90;;;;;;5093563;28;20048;-72
2023/04/04 00:41:05;;;;;;;3.95;2.42;;;2.00;99.90;;;;;;5075664;28;20129;-72
2023/04/04 00:43:32;;;;;;;5.47;2.30;;;2.00;99.90;;;;;;5093906;28;20074;-72
2023/04/04 00:45:58;;;;;;;5.28;2.55;;;2.00;99.90;;;;;;5076068;28;20127;-72
2023/04/04 00:48:23;;;;;;;4.95;2.35;;;2.00;99.90;;;;;;5093338;28;20123;-72
2023/04/04 00:50:49;;;;;;;6.03;2.40;;;1.90;99.90;;;;;;5093366;28;20077;-72
2023/04/04 00:53:16;;;;;;;3.33;2.30;;;2.00;99.90;;;;;;5093934;28;20044;-72
2023/04/04 00:55:42;;;;;;;3.75;2.70;;;1.90;99.90;;;;;;5093369;28;20443;-72
2023/04/04 00:58:09;;;;;;;5.70;4.57;;;1.80;99.90;;;;;;5094087;28;20397;-72
2023/04/04 01:00:36;;;;;;;5.95;3.28;;;1.80;99.90;;;;;;5095793;28;20093;-72
2023/04/04 01:03:04;;;;;;;4.30;2.65;;;1.80;99.90;;;;;;5098258;28;20169;-72
2023/04/04 01:05:30;;;;;;;3.35;2.13;;;1.70;99.90;;;;;;5097464;28;20043;-72
2023/04/04 01:07:56;;;;;;;4.82;2.00;;;1.60;99.90;;;;;;5097623;28;20361;-72
2023/04/04 01:10:22;;;;;;;3.47;2.03;;;1.60;99.90;;;;;;5097386;28;20059;-72
2023/04/04 01:12:48;;;;;;;4.40;2.50;;;1.50;99.90;;;;;;5079461;28;20044;-72
2023/04/04 01:15:14;;;;;;;3.20;2.00;;;1.40;99.90;;;;;;5097277;28;20048;-73
2023/04/04 01:17:42;;;;;;;4.30;2.38;;;1.40;99.90;;;;;;5079560;28;20079;-72
2023/04/04 01:20:14;;;;;;;4.35;2.65;;;1.70;99.90;;;;;;5097729;28;20048;-72
2023/04/04 01:22:42;;;;;;;4.90;2.30;;;1.90;99.90;;;;;;5097208;28;20051;-72
2023/04/04 01:25:10;;;;;;;4.82;2.45;;;1.50;99.90;;;;;;5079038;28;20044;-73
2023/04/04 01:27:36;;;;;;;6.70;2.40;;;1.40;99.90;;;;;;5096903;28;20062;-75
2023/04/04 01:30:02;;;;;;;3.30;2.00;;;1.40;99.90;;;;;;5096870;28;20052;-73
2023/04/04 01:32:48;;;;;;;3.83;2.25;;;1.30;99.90;;;;;;5096902;28;20054;-73
2023/04/04 01:35:37;;;;;;;4.77;2.90;;;1.30;99.90;;;;;;5096965;28;20044;-73
2023/04/04 01:38:51;;;;;;;4.38;2.10;;;1.40;99.90;;;;;;5096891;28;20048;-72
2023/04/04 01:41:19;;;;;;;6.47;2.55;;;1.30;99.90;;;;;;5007056;28;20058;-72
2023/04/04 01:43:47;;;;;;;4.07;2.30;;;1.30;99.90;;;;;;5097551;28;20044;-72
2023/04/04 01:46:16;;;;;;;5.13;2.30;;;1.30;99.90;;;;;;5096676;28;20044;-73
2023/04/04 01:48:42;;;;;;;4.63;2.15;;;1.30;99.90;;;;;;5096221;28;20043;-72
2023/04/04 01:51:08;;;;;;;4.97;2.38;;;1.30;99.90;;;;;;5097107;28;20047;-73
2023/04/04 01:53:34;;;;;;;3.70;2.50;;;1.20;99.90;;;;;;5097293;28;20148;-72
2023/04/04 01:56:00;;;;;;;5.18;2.67;;;1.20;99.90;;;;;;5097045;28;20433;-73
2023/04/04 01:58:26;;;;;;;4.53;2.30;;;1.20;99.90;;;;;;5079284;28;20139;-75
2023/04/04 02:00:51;;;;;;;6.00;2.80;;;2.20;99.90;;;;;;5096871;28;20123;-74
2023/04/04 02:03:17;;;;;;;4.45;1.92;;;1.20;99.90;;;;;;5096061;28;20536;-76
2023/04/04 02:05:43;;;;;;;5.57;2.53;;;1.20;99.90;;;;;;5096282;28;20146;-72
2023/04/04 02:08:09;;;;;;;4.75;2.47;;;1.10;99.90;;;;;;5078064;28;20059;-72
2023/04/04 02:10:34;;;;;;;4.85;2.30;;;1.10;99.90;;;;;;5095740;28;20069;-73
2023/04/04 02:13:00;;;;;;;4.15;1.98;;;1.10;99.90;;;;;;5095356;28;20040;-72
2023/04/04 02:15:26;;;;;;;5.60;2.60;;;1.00;99.90;;;;;;5096122;28;20097;-75
2023/04/04 02:17:52;;;;;;;4.47;2.53;;;1.10;99.90;;;;;;5096052;28;20040;-72
2023/04/04 02:20:18;;;;;;;4.40;2.25;;;1.40;99.90;;;;;;5096576;28;20044;-73
2023/04/04 02:22:54;;;;;;;5.22;2.45;;;1.00;99.90;;;;;;5095875;28;20063;-74
2023/04/04 02:25:21;;;;;;;5.60;2.72;;;0.90;99.90;;;;;;5095928;28;20052;-72
2023/04/04 02:27:46;;;;;;;3.47;2.30;;;0.90;99.90;;;;;;5095732;28;20051;-75
2023/04/04 02:30:13;;;;;;;3.55;2.15;;;0.80;99.90;;;;;;5077619;28;20040;-73
2023/04/04 02:32:38;;;;;;;5.95;2.53;;;0.80;99.90;;;;;;5095673;28;20059;-76
2023/04/04 02:35:05;;;;;;;4.00;2.05;;;0.70;99.90;;;;;;5095708;28;20043;-72
2023/04/04 02:37:30;;;;;;;3.92;2.25;;;0.70;99.90;;;;;;5095613;28;20047;-72
2023/04/04 02:39:56;;;;;;;3.38;2.42;;;0.70;99.90;;;;;;5095627;28;20048;-72
2023/04/04 02:42:22;;;;;;;3.88;2.35;;;0.80;99.90;;;;;;5078144;28;20101;-74
2023/04/04 02:44:47;;;;;;;4.13;2.10;;;0.90;99.90;;;;;;5078010;28;20040;-72
2023/04/04 02:47:13;;;;;;;4.88;2.20;;;0.80;99.90;;;;;;5095687;28;20032;-72
2023/04/04 02:49:38;;;;;;;4.53;2.47;;;0.60;99.90;;;;;;5095970;28;20496;-72
2023/04/04 02:52:04;;;;;;;4.63;2.47;;;0.80;99.90;;;;;;5078282;28;20059;-74
2023/04/04 02:54:30;;;;;;;3.97;2.42;;;1.10;99.90;;;;;;5095398;28;20101;-75
2023/04/04 02:56:56;;;;;;;4.00;2.25;;;0.60;99.90;;;;;;5060793;28;20046;-72
2023/04/04 02:59:22;;;;;;;3.80;2.38;;;0.60;99.90;;;;;;5077275;28;20043;-72
2023/04/04 03:01:47;;;;;;;3.58;2.63;;;0.60;99.90;;;;;;5095148;28;20090;-72
2023/04/04 03:04:13;;;;;;;2.85;1.95;;;0.60;99.90;;;;;;5095706;28;20044;-72
2023/04/04 03:06:42;;;;;;;4.45;2.38;;;0.50;99.90;;;;;;5060550;28;20083;-73
2023/04/04 03:09:08;;;;;;;3.75;2.30;;;0.50;99.90;;;;;;5095376;28;20395;-72
2023/04/04 03:11:33;;;;;;;3.25;2.28;;;0.50;99.90;;;;;;5095306;28;20043;-73
2023/04/04 03:13:59;;;;;;;5.80;2.47;;;0.50;99.90;;;;;;5077152;28;20047;-72
2023/04/04 03:16:25;;;;;;;4.32;2.30;;;0.50;99.90;;;;;;5095395;28;20090;-72
2023/04/04 03:18:51;;;;;;;3.95;2.22;;;0.50;99.90;;;;;;5094886;28;20392;-72
2023/04/04 03:21:17;;;;;;;3.50;1.95;;;0.40;99.90;;;;;;5095401;28;20426;-72
2023/04/04 03:23:43;;;;;;;3.33;2.17;;;0.40;99.90;;;;;;5095419;28;20098;-73
2023/04/04 03:26:09;;;;;;;5.47;2.55;;;1.00;99.90;;;;;;5077463;28;20051;-75
2023/04/04 03:28:35;;;;;;;4.45;2.58;;;0.40;99.90;;;;;;5094412;28;20036;-73
2023/04/04 03:31:05;;;;;;;4.10;2.22;;;0.40;99.90;;;;;;5077274;28;20094;-73
2023/04/04 03:33:32;;;;;;;4.15;2.22;;;0.40;99.90;;;;;;5094869;28;20044;-73
2023/04/04 03:35:58;;;;;;;5.25;2.53;;;0.90;99.90;;;;;;5094476;28;20048;-72
2023/04/04 03:38:24;;;;;;;3.20;2.00;;;0.40;99.90;;;;;;5094535;28;20081;-74
2023/04/04 03:41:00;;;;;;;4.50;2.63;;;0.40;99.90;;;;;;5094464;28;20051;-73
2023/04/04 03:43:27;;;;;;;5.30;2.73;;;0.40;99.90;;;;;;5095004;28;20411;-72
2023/04/04 03:45:54;;;;;;;4.25;2.05;;;0.30;99.90;;;;;;5076503;28;20282;-73
2023/04/04 03:48:19;;;;;;;4.25;2.67;;;0.30;99.90;;;;;;5094214;28;20123;-72
2023/04/04 03:50:45;;;;;;;5.03;2.83;;;0.30;99.90;;;;;;5094269;28;20090;-72
2023/04/04 03:53:11;;;;;;;4.80;3.22;;;0.20;99.90;;;;;;5094444;28;20048;-72
2023/04/04 03:55:41;;;;;;;8.23;2.75;;;0.20;99.90;;;;;;5094181;28;20044;-72
2023/04/04 03:58:06;;;;;;;3.42;2.35;;;0.20;99.90;;;;;;5076532;28;20055;-73
2023/04/04 04:00:32;;;;;;;4.57;2.30;;;0.10;99.90;;;;;;5093705;28;20396;-74
2023/04/04 04:02:58;;;;;;;4.97;2.25;;;0.10;99.90;;;;;;5094022;28;20074;-72
2023/04/04 04:05:23;;;;;;;4.35;2.25;;;0.10;99.90;;;;;;5094559;28;20044;-72
2023/04/04 04:07:49;;;;;;;4.00;2.47;;;-0.40;99.90;;;;;;5076691;28;20044;-72
2023/04/04 04:10:15;;;;;;;4.65;2.50;;;0.00;99.90;;;;;;5076108;28;20046;-73
2023/04/04 04:12:41;;;;;;;3.88;2.00;;;-0.10;99.90;;;;;;5093890;28;20055;-78
2023/04/04 04:15:07;;;;;;;3.15;2.13;;;0.40;99.90;;;;;;5093824;28;20050;-71
2023/04/04 04:17:33;;;;;;;3.80;2.28;;;-0.20;99.90;;;;;;5093781;28;20036;-75
2023/04/04 04:19:59;;;;;;;3.63;2.08;;;-0.20;99.90;;;;;;5093886;28;20055;-72
2023/04/04 04:22:25;;;;;;;4.18;2.22;;;-0.10;99.90;;;;;;5093576;28;20473;-72
2023/04/04 04:24:50;;;;;;;5.28;2.90;;;0.10;99.90;;;;;;5094345;28;20048;-72
2023/04/04 04:27:16;;;;;;;4.82;2.30;;;0.00;99.90;;;;;;5094596;28;20132;-71
2023/04/04 04:29:41;;;;;;;3.58;2.15;;;0.20;99.90;;;;;;5093533;28;20048;-72
2023/04/04 04:32:07;;;;;;;3.35;2.25;;;0.00;99.90;;;;;;5093294;28;20125;-72
2023/04/04 04:34:33;;;;;;;4.47;2.10;;;0.10;99.90;;;;;;5092915;28;20080;-72
2023/04/04 04:36:58;;;;;;;4.55;2.28;;;0.10;99.90;;;;;;5076491;28;20052;-72
2023/04/04 04:39:24;;;;;;;4.57;2.35;;;0.00;99.90;;;;;;5093495;28;20388;-72
2023/04/04 04:41:50;;;;;;;3.45;2.08;;;0.40;99.90;;;;;;5075977;28;20048;-72
2023/04/04 04:44:15;;;;;;;3.00;1.73;;;0.00;99.90;;;;;;5093516;28;20040;-72
2023/04/04 04:46:41;;;;;;;3.88;2.00;;;0.00;99.90;;;;;;5093374;28;20046;-72
2023/04/04 04:49:07;;;;;;;3.50;1.83;;;0.30;99.90;;;;;;5076047;28;20051;-73
2023/04/04 04:51:33;;;;;;;3.00;1.95;;;0.00;99.90;;;;;;5094195;28;20044;-72
2023/04/04 04:53:58;;;;;;;2.75;1.92;;;0.00;99.90;;;;;;5093403;28;20488;-71
2023/04/04 04:56:24;;;;;;;3.58;2.10;;;0.00;99.90;;;;;;5076096;28;20051;-73
2023/04/04 04:58:59;;;;;;;4.63;1.90;;;0.00;99.90;;;;;;5093420;28;20055;-74
2023/04/04 05:01:25;;;;;;;2.88;1.83;;;0.00;99.90;;;;;;5092986;28;20059;-72
2023/04/04 05:03:50;;;;;;;2.90;2.15;;;0.00;99.90;;;;;;5093273;28;20066;-72
2023/04/04 05:06:16;;;;;;;2.67;1.80;;;0.10;99.90;;;;;;5093789;28;20169;-71
2023/04/04 05:08:42;;;;;;;4.85;1.80;;;0.00;99.90;;;;;;5075067;28;20044;-72
2023/04/04 05:11:07;;;;;;;3.88;2.05;;;0.20;99.90;;;;;;5093303;28;20048;-74
2023/04/04 05:13:33;;;;;;;3.00;1.95;;;0.80;99.90;;;;;;5093271;28;20106;-72
2023/04/04 05:15:59;;;;;;;4.07;2.47;;;0.40;99.90;;;;;;5093205;28;20481;-72
2023/04/04 05:18:26;;;;;;;3.45;2.22;;;0.00;99.90;;;;;;5093164;28;20470;-72
2023/04/04 05:20:53;;;;;;;3.67;2.08;;;0.00;99.90;;;;;;5093089;28;20161;-72
2023/04/04 05:23:19;;;;;;;2.85;2.00;;;0.00;99.90;;;;;;5094087;28;20074;-72
2023/04/04 05:25:47;;;;;;;5.57;2.30;;;0.40;99.90;;;;;;5093853;28;20048;-72
2023/04/04 05:28:13;;;;;;;4.00;2.05;;;0.00;99.90;;;;;;5092983;28;20098;-72
2023/04/04 05:30:38;;;;;;;4.90;2.08;;;0.30;99.90;;;;;;5075083;28;20048;-71
2023/04/04 05:33:04;;;;;;;3.40;2.00;;;0.00;99.90;;;;;;5093039;28;20117;-71
2023/04/04 05:35:30;;;;;;;3.72;2.20;;;0.10;99.90;;;;;;5093504;28;20059;-72
2023/04/04 05:37:55;;;;;;;2.95;1.80;;;0.20;99.90;;;;;;5092686;28;20040;-72
2023/04/04 05:40:21;;;;;;;5.30;2.30;;;0.10;99.90;;;;;;5092941;28;20043;-72
2023/04/04 05:42:58;;;;;;;4.10;2.03;;;0.40;99.90;;;;;;5075511;28;20091;-72
2023/04/04 05:45:24;;;;;;;3.97;2.50;;;0.20;99.90;;;;;;5093365;28;20055;-72
2023/04/04 05:47:50;;;;;;;4.32;2.10;;;0.20;99.90;;;;;;5078531;28;20109;-72
2023/04/04 05:50:16;;;;;;;4.03;2.20;;;0.20;99.90;;;;;;5079530;28;20198;-72
2023/04/04 05:52:42;;;;;;;3.13;2.00;;;0.30;99.90;;;;;;5097421;28;20048;-73
2023/04/04 05:55:08;;;;;;;3.97;2.08;;;0.40;99.90;;;;;;5096547;28;20508;-71
2023/04/04 05:57:34;;;;;;;3.67;2.00;;;0.80;99.90;;;;;;5096498;28;20047;-72
2023/04/04 06:00:00;;;;;;;3.58;2.15;;;0.20;99.90;;;;;;5096384;28;20048;-72
2023/04/04 06:02:25;;;;;;;3.78;2.58;;;0.60;99.90;;;;;;5096322;28;20044;-72
2023/04/04 06:04:51;;;;;;;3.85;2.38;;;0.90;99.90;;;;;;5096320;28;20501;-72
2023/04/04 06:07:17;;;;;;;3.25;2.10;;;0.80;99.90;;;;;;5078239;28;20040;-72
2023/04/04 06:09:43;;;;;;;3.70;2.00;;;0.90;99.90;;;;;;5078336;28;20052;-72
2023/04/04 06:12:09;;;;;;;4.03;2.15;;;0.90;99.90;;;;;;5096386;28;20378;-66
2023/04/04 06:14:35;;;;;;;5.18;2.40;;;1.00;99.90;;;;;;5096134;28;20480;-65
2023/04/04 06:17:02;;;;;;;3.08;2.20;;;1.00;99.90;;;;;;5096073;28;20089;-66
2023/04/04 06:19:27;;;;;;;4.30;2.30;;;1.10;99.90;;;;;;5096057;28;20052;-65
2023/04/04 06:21:53;;;;;;;3.10;2.05;;;1.20;99.90;;;;;;5096016;28;20054;-65
2023/04/04 06:24:19;;;;;;;3.45;2.30;;;1.20;99.90;;;;;;5095802;28;20064;-65
2023/04/04 06:26:45;;;;;;;4.75;2.85;;;1.30;99.90;;;;;;5095834;28;20054;-65
2023/04/04 06:29:11;;;;;;;3.20;2.30;;;1.50;99.90;;;;;;5060970;28;20055;-65
2023/04/04 06:31:37;;;;;;;4.18;2.20;;;1.30;99.90;;;;;;5096046;28;20040;-65
2023/04/04 06:34:02;;;;;;;4.32;2.10;;;1.30;99.90;;;;;;5095718;28;20447;-66
2023/04/04 06:36:28;;;;;;;5.60;2.30;;;1.40;99.90;;;;;;5095735;28;20052;-66
2023/04/04 06:38:54;;;;;;;4.63;2.50;;;1.70;99.90;;;;;;5095618;28;20044;-66
2023/04/04 06:41:19;;;;;;;4.78;2.17;;;1.50;99.90;;;;;;5095623;28;20048;-65
2023/04/04 06:43:48;;;;;;;4.82;3.35;;;1.90;99.90;;;;;;5095282;28;20406;-65
2023/04/04 06:46:13;;;;;;;4.63;2.42;;;1.50;99.90;;;;;;5095828;28;20079;-65
2023/04/04 06:48:39;;;;;;;4.22;1.95;;;1.50;99.90;;;;;;5095501;28;20083;-65
2023/04/04 06:51:06;;;;;;;3.78;2.10;;;1.60;99.90;;;;;;5060749;28;20040;-66
2023/04/04 06:53:33;;;;;;;2.40;1.75;;;1.60;99.90;;;;;;5077535;28;20044;-66
2023/04/04 06:55:59;;;;;;;3.50;2.00;;;1.90;99.90;;;;;;5095135;28;20618;-66
2023/04/04 06:58:25;;;;;;;3.22;1.92;;;1.80;99.90;;;;;;5077132;28;20127;-65
2023/04/04 07:00:50;;;;;;;4.15;2.03;;;1.70;99.90;;;;;;5095308;28;20123;-65
2023/04/04 07:03:16;;;;;;;4.18;1.90;;;1.70;99.90;;;;;;5077127;28;20046;-66
2023/04/04 07:05:42;;;;;;;3.83;2.08;;;1.90;99.90;;;;;;5095099;28;20051;-65
2023/04/04 07:08:08;;;;;;;4.45;2.05;;;2.00;99.90;;;;;;5094674;28;20075;-73
2023/04/04 07:10:34;;;;;;;3.47;2.00;;;2.60;99.90;;;;;;5094975;28;20086;-75
2023/04/04 07:13:00;;;;;;;3.47;2.05;;;2.20;99.90;;;;;;5094943;28;20492;-75
2023/04/04 07:15:26;;;;;;;4.35;2.00;;;2.30;99.90;;;;;;5095487;28;20461;-76
2023/04/04 07:17:53;;;;;;;6.00;2.05;;;2.50;99.90;;;;;;5094878;28;20044;-75
2023/04/04 07:20:19;;;;;;;3.38;1.70;;;2.60;99.90;;;;;;5094794;28;20138;-75
2023/04/04 07:22:45;;;;;;;3.42;1.95;;;2.60;99.90;;;;;;5094604;28;20087;-75
2023/04/04 07:25:13;;;;;;;3.95;2.05;;;2.70;99.90;;;;;;5077585;28;20056;-75
2023/04/04 07:27:42;;;;;;;3.05;1.80;;;2.80;99.90;;;;;;5094649;28;20043;-75
2023/04/04 07:30:08;;;;;;;3.47;2.10;;;2.90;99.90;;;;;;5077441;28;20088;-76
2023/04/04 07:32:34;;;;;;;3.33;1.75;;;3.00;99.90;;;;;;5094575;28;20051;-73
2023/04/04 07:35:00;;;;;;;3.95;2.22;;;3.20;99.90;;;;;;5094400;28;20047;-73
2023/04/04 07:37:26;;;;;;;5.88;2.15;;;3.20;99.90;;;;;;5094450;28;20169;-75
2023/04/04 07:39:52;;;;;;;4.90;2.13;;;3.30;99.90;;;;;;5094538;28;20098;-74
2023/04/04 07:42:21;;;;;;;4.38;1.50;;;3.30;99.90;;;;;;5077305;28;20050;-73
2023/04/04 07:44:51;;;;;;;3.15;1.70;;;3.40;99.90;;;;;;5094348;28;20087;-74
2023/04/04 07:47:17;;;;;;;4.22;1.70;;;3.90;99.90;;;;;;5094276;28;20044;-73
2023/04/04 07:49:43;;;;;;;3.03;1.92;;;3.70;99.90;;;;;;5094243;28;20074;-75
2023/04/04 07:52:09;;;;;;;3.70;1.70;;;3.70;99.90;;;;;;5094212;28;20047;-75
2023/04/04 07:54:35;;;;;;;2.90;1.60;;;3.80;99.90;;;;;;5094200;28;20047;-73
2023/04/04 07:57:04;;;;;;;3.65;1.70;;;4.00;99.90;;;;;;5094225;28;20066;-74
2023/04/04 07:59:31;;;;;;;3.05;1.65;;;4.50;99.90;;;;;;5094078;28;20051;-73
2023/04/04 08:01:57;;;;;;;4.03;2.10;;;4.00;99.90;;;;;;5094015;28;20052;-74
2023/04/04 08:04:23;;;;;;;2.83;1.75;;;4.10;99.90;;;;;;5093955;28;20095;-75
2023/04/04 08:06:48;;;;;;;4.82;2.45;;;4.20;99.90;;;;;;5076244;28;20048;-73
2023/04/04 08:09:14;;;;;;;2.92;1.65;;;4.20;99.90;;;;;;5092969;28;20471;-73
2023/04/04 08:11:40;;;;;;;3.38;1.65;;;4.40;99.90;;;;;;5094319;28;20048;-74
2023/04/04 08:14:06;;;;;;;3.47;1.60;;;4.40;99.90;;;;;;5075703;28;20093;-74
2023/04/04 08:16:32;;;;;;;2.78;1.65;;;4.60;99.90;;;;;;5093860;28;20048;-73
2023/04/04 08:18:59;;;;;;;5.93;1.95;;;4.60;99.90;;;;;;5076700;28;20056;-73
2023/04/04 08:21:25;;;;;;;3.42;1.50;;;4.70;99.90;;;;;;5093726;28;20044;-76
2023/04/04 08:23:50;;;;;;;2.25;1.40;;;4.70;99.90;;;;;;5093995;28;20082;-75
2023/04/04 08:26:16;;;;;;;3.05;1.50;;;4.90;99.90;;;;;;5076252;28;20043;-74
2023/04/04 08:28:42;;;;;;;3.05;1.80;;;5.00;99.90;;;;;;5094281;28;20123;-75
2023/04/04 08:31:09;;;;;;;5.03;2.15;;;5.10;99.90;;;;;;5093528;28;20048;-74
2023/04/04 08:33:34;;;;;;;4.35;1.70;;;5.20;99.90;;;;;;5075728;28;20050;-73
2023/04/04 08:36:00;;;;;;;3.80;1.52;;;5.40;99.90;;;;;;5093550;28;20126;-73
2023/04/04 08:38:26;;;;;;;3.10;1.63;;;5.50;99.90;;;;;;5093494;28;20047;-73
2023/04/04 08:40:52;;;;;;;2.20;1.50;;;5.60;99.90;;;;;;5075590;28;20047;-74
2023/04/04 08:43:20;;;;;;;4.72;1.90;;;5.70;99.90;;;;;;5094101;28;20052;-73
2023/04/04 08:45:48;;;;;;;4.72;1.58;;;5.80;99.90;;;;;;5093358;28;20040;-66
2023/04/04 08:48:16;;;;;;;3.45;1.40;;;6.00;99.90;;;;;;5093387;28;20086;-66
2023/04/04 08:50:42;;;;;;;2.97;1.38;;;6.10;99.90;;;;;;5093460;28;20054;-66
2023/04/04 08:53:10;;;;;;;3.65;1.30;;;6.20;99.90;;;;;;5093289;28;20040;-66
2023/04/04 08:55:40;;;;;;;2.65;1.52;;;6.30;99.90;;;;;;5093360;28;20123;-66
2023/04/04 08:58:06;;;;;;;2.25;1.30;;;6.50;99.90;;;;;;5093329;28;20055;-67
2023/04/04 09:00:31;;;;;;;2.65;1.95;;;6.70;99.90;;;;;;5093173;28;20052;-67
2023/04/04 09:03:25;;;;;;;3.78;1.90;;;6.80;99.90;;;;;;5093747;28;20040;-66
2023/04/04 09:05:51;;;;;;;2.78;1.55;;;6.80;99.90;;;;;;5093313;28;20051;-67
2023/04/04 09:08:18;;;;;;;2.05;1.20;;;6.90;99.90;;;;;;5075301;28;20071;-66
2023/04/04 09:10:45;;;;;;;2.70;1.45;;;7.00;99.90;;;;;;5075342;28;20047;-66
2023/04/04 09:13:11;;;;;;;3.15;1.50;;;7.10;99.90;;;;;;5093158;28;20118;-66
2023/04/04 09:15:40;;;;;;;3.22;1.70;;;7.20;99.90;;;;;;5093283;28;20051;-65
2023/04/04 09:18:05;;;;;;;3.75;1.48;;;7.30;99.90;;;;;;5093049;28;20074;-66
2023/04/04 09:20:36;;;;;;;2.97;1.45;;;7.40;99.90;;;;;;5093737;28;20040;-66
2023/04/04 09:23:06;;;;;;;3.95;1.40;;;7.40;99.90;;;;;;5096771;28;20172;-66
2023/04/04 09:25:33;;;;;;;2.95;1.40;;;7.60;99.90;;;;;;5096799;28;20090;-66
2023/04/04 09:28:01;;;;;;;2.75;1.30;;;7.80;99.90;;;;;;5096675;28;20054;-66
2023/04/04 09:30:28;;;;;;;2.65;1.42;;;7.90;99.90;;;;;;5096948;28;20105;-66
2023/04/04 09:32:55;;;;;;;2.67;1.27;;;8.00;99.90;;;;;;5096986;28;20044;-66
2023/04/04 09:35:20;;;;;;;3.83;1.17;;;8.10;99.90;;;;;;5096774;28;20048;-69
2023/04/04 09:37:46;;;;;;;3.47;1.40;;;8.20;99.90;;;;;;5097507;28;20086;-66
2023/04/04 09:40:13;;;;;;;3.42;1.70;;;8.30;99.90;;;;;;5097173;28;20480;-66
2023/04/04 09:42:39;;;;;;;2.53;1.38;;;8.40;99.90;;;;;;5096749;28;20052;-65
2023/04/04 09:45:06;;;;;;;2.35;1.40;;;8.50;99.90;;;;;;5096693;28;20051;-66
2023/04/04 09:47:32;;;;;;;2.33;1.90;;;8.50;99.90;;;;;;5097020;28;20435;-66
2023/04/04 09:50:06;;;;;;;3.22;1.60;;;8.60;99.90;;;;;;5096497;28;20059;-65
2023/04/04 09:52:34;;;;;;;3.47;1.40;;;8.70;99.90;;;;;;5097064;28;20055;-65
2023/04/04 09:55:02;;;;;;;3.38;1.50;;;8.90;99.90;;;;;;5096791;28;20149;-66
2023/04/04 09:57:29;;;;;;;3.15;1.70;;;9.00;99.90;;;;;;5096356;28;20040;-67
2023/04/04 10:00:02;;;;;;;4.00;1.85;;;9.00;99.90;;;;;;5096372;28;20051;-67
2023/04/04 10:02:29;;;;;;;3.33;1.48;;;9.10;99.90;;;;;;5096387;28;20048;-67
2023/04/04 10:04:56;;;;;;;3.53;1.50;;;9.20;99.90;;;;;;5096262;28;20047;-68
2023/04/04 10:07:29;;;;;;;4.13;2.17;;;9.20;99.90;;;;;;5078590;28;20048;-66
2023/04/04 10:09:56;;;;;;;3.00;1.42;;;9.20;99.90;;;;;;5077831;28;20052;-67
2023/04/04 10:12:24;;;;;;;2.90;1.50;;;9.30;99.90;;;;;;5079108;28;20044;-67
2023/04/04 10:14:56;;;;;;;3.35;1.40;;;9.40;99.90;;;;;;5078544;28;20143;-66
2023/04/04 10:17:24;;;;;;;2.92;1.45;;;9.50;99.90;;;;;;5096835;28;20105;-65
2023/04/04 10:19:52;;;;;;;4.53;1.48;;;9.60;99.90;;;;;;5096065;28;20519;-66
2023/04/04 10:22:21;;;;;;;4.05;1.60;;;9.70;99.90;;;;;;5096040;28;20048;-67
2023/04/04 10:24:46;;;;;;;2.70;1.30;;;9.80;99.90;;;;;;5095879;28;20135;-66
2023/04/04 10:27:12;;;;;;;3.03;1.60;;;10.00;99.90;;;;;;5095872;28;20230;-66
2023/04/04 10:29:38;;;;;;;2.50;1.10;;;10.20;99.90;;;;;;5096075;28;20048;-66
2023/04/04 10:32:05;;;;;;;3.63;1.45;;;10.30;99.90;;;;;;5094341;28;20056;-67
2023/04/04 10:34:52;;;;;;;3.38;1.20;;;10.50;99.90;;;;;;5077557;28;20043;-66
2023/04/04 10:37:27;;;;;;;2.92;1.30;;;10.70;99.90;;;;;;5096244;28;20101;-69
2023/04/04 10:40:09;;;;;;;3.13;1.27;;;10.80;99.90;;;;;;5095852;28;20130;-66
2023/04/04 10:42:38;;;;;;;5.13;1.48;;;11.00;99.90;;;;;;5095723;28;20055;-66
2023/04/04 10:45:07;;;;;;;3.15;1.33;;;11.10;99.90;;;;;;5096344;28;20054;-67
2023/04/04 10:47:34;;;;;;;3.55;1.48;;;11.20;99.90;;;;;;5095486;28;20437;-66
2023/04/04 10:50:01;;;;;;;2.92;1.40;;;11.30;99.90;;;;;;5095409;28;20048;-66
2023/04/04 10:52:30;;;;;;;3.13;1.13;;;11.30;99.90;;;;;;5095464;28;20400;-66
2023/04/04 10:55:01;;;;;;;2.17;1.02;;;11.30;99.90;;;;;;5095330;28;20040;-66
2023/04/04 10:57:28;;;;;;;2.45;1.40;;;11.30;99.90;;;;;;5096178;28;20422;-66
2023/04/04 11:00:06;;;;;;;2.97;1.38;;;11.50;99.90;;;;;;5077309;28;20048;-66
2023/04/04 11:02:57;;;;;;;3.33;1.25;;;11.60;99.90;;;;;;5095282;28;20126;-66
2023/04/04 11:05:40;;;;;;;2.50;1.30;;;11.60;99.90;;;;;;5095117;28;20044;-66
2023/04/04 11:08:09;;;;;;;2.80;1.10;;;11.60;99.90;;;;;;5094926;28;20435;-67
2023/04/04 11:10:41;;;;;;;2.95;1.20;;;11.60;99.90;;;;;;5095082;28;20047;-66
2023/04/04 11:13:14;;;;;;;2.15;0.88;;;11.80;99.90;;;;;;5095043;28;20093;-66
2023/04/04 11:16:06;;;;;;;2.33;1.15;;;12.20;99.90;;;;;;5095118;28;20418;-66
2023/04/04 11:18:41;;;;;;;4.63;1.20;;;12.30;99.90;;;;;;5095566;28;20114;-67
2023/04/04 11:21:17;;;;;;;2.10;1.02;;;12.40;99.90;;;;;;5095206;28;20044;-67
2023/04/04 11:23:58;;;;;;;3.08;1.20;;;12.50;99.90;;;;;;5094380;28;20063;-67
2023/04/04 11:26:26;;;;;;;2.88;1.25;;;12.50;99.90;;;;;;5094842;28;20087;-68
2023/04/04 11:28:56;;;;;;;3.05;1.30;;;12.50;99.90;;;;;;5095043;28;20119;-67
2023/04/04 11:31:24;;;;;;;2.97;1.20;;;12.70;99.90;;;;;;5094525;28;20101;-68
2023/04/04 11:34:14;;;;;;;3.42;1.35;;;12.80;99.90;;;;;;5094841;28;20459;-66
2023/04/04 11:36:41;;;;;;;2.97;1.35;;;13.00;99.90;;;;;;5081853;28;20060;-66
2023/04/04 11:39:14;;;;;;;3.45;1.30;;;13.00;99.90;;;;;;5076624;28;20048;-66
2023/04/04 11:41:46;;;;;;;2.28;1.20;;;13.10;99.90;;;;;;5094546;28;20040;-66
2023/04/04 11:44:13;;;;;;;4.05;2.63;;;13.20;99.90;;;;;;5094521;28;20103;-66
2023/04/04 11:46:40;;;;;;;3.33;1.30;;;13.20;99.90;;;;;;5094363;28;20087;-66
2023/04/04 11:49:06;;;;;;;2.47;1.30;;;13.10;99.90;;;;;;5094598;28;20054;-66
2023/04/04 11:51:32;;;;;;;2.75;1.45;;;13.20;99.90;;;;;;5094335;28;20123;-67
2023/04/04 11:53:58;;;;;;;1.92;1.20;;;13.40;99.90;;;;;;5094224;28;20086;-67
2023/04/04 11:56:24;;;;;;;3.83;1.20;;;13.60;99.90;;;;;;5076473;28;20059;-67
2023/04/04 11:58:50;;;;;;;2.53;1.10;;;13.60;99.90;;;;;;5093987;28;20040;-67
2023/04/04 12:01:18;;;;;;;2.03;1.17;;;13.50;99.90;;;;;;5094443;28;20051;-66
2023/04/04 12:03:44;;;;;;;2.22;1.10;;;13.50;99.90;;;;;;5094070;28;20136;-67
2023/04/04 12:06:15;;;;;;;3.30;1.02;;;13.80;99.90;;;;;;5094087;28;20044;-68
2023/04/04 12:08:42;;;;;;;3.25;1.10;;;14.10;99.90;;;;;;5093923;28;20423;-67
2023/04/04 12:11:09;;;;;;;2.03;1.10;;;14.30;99.90;;;;;;5093938;28;20087;-66
2023/04/04 12:13:44;;;;;;;2.75;1.33;;;14.50;99.90;;;;;;5093906;28;20058;-66
2023/04/04 12:16:10;;;;;;;2.63;1.10;;;14.90;99.90;;;;;;5094079;28;20504;-67
2023/04/04 12:18:36;;;;;;;3.67;1.20;;;15.10;99.90;;;;;;5094137;28;20043;-66
2023/04/04 12:21:02;;;;;;;1.75;1.00;;;15.20;99.90;;;;;;5093847;28;20043;-66
2023/04/04 12:23:34;;;;;;;2.20;1.20;;;15.10;99.90;;;;;;5093517;28;20084;-65
2023/04/04 12:26:02;;;;;;;2.92;1.23;;;15.40;99.90;;;;;;5093390;28;20480;-63
2023/04/04 12:28:32;;;;;;;2.85;1.35;;;16.10;99.90;;;;;;5076042;28;20403;-63
2023/04/04 12:31:04;;;;;;;2.00;1.10;;;16.50;99.90;;;;;;5093527;28;20048;-66
2023/04/04 12:33:32;;;;;;;3.00;1.58;;;16.80;99.90;;;;;;5093645;28;20052;-64
2023/04/04 12:35:58;;;;;;;2.10;1.15;;;16.80;99.90;;;;;;5075756;28;20052;-66
2023/04/04 12:38:25;;;;;;;3.05;1.17;;;16.40;99.90;;;;;;5093424;28;20044;-65
2023/04/04 12:40:51;;;;;;;2.17;1.10;;;15.70;99.90;;;;;;5093525;28;20048;-65
2023/04/04 12:43:19;;;;;;;2.85;1.42;;;15.60;99.90;;;;;;5093955;28;20043;-65
2023/04/04 12:45:45;;;;;;;2.40;1.05;;;15.90;99.90;;;;;;5075842;28;20055;-67
2023/04/04 12:48:13;;;;;;;4.70;1.38;;;16.40;99.90;;;;;;5093786;28;20044;-67
2023/04/04 12:50:56;;;;;;;2.38;1.27;;;16.80;99.90;;;;;;5075386;28;20400;-67
2023/04/04 12:53:28;;;;;;;3.10;1.48;;;17.20;99.90;;;;;;5093415;28;20044;-67
2023/04/04 12:55:59;;;;;;;2.78;1.30;;;17.40;99.90;;;;;;5097141;28;20053;-67
2023/04/04 12:58:25;;;;;;;2.42;1.20;;;17.30;99.90;;;;;;5100048;28;20051;-67